Terminal Aerodrome Forecast
Issued by NWS Duluth, MN

Home | Current Version | Previous Version | Text Only | Print | Product List | Glossary On
Versions: 1 2 3 4 5 6 7 8 9 10 11 12 13 14 15 16 17 18 19 20 21 22 23 24 25 26 27 28 29 30
880
FTUS43 KDLH 220717 AAB
TAFDLH
TAF AMD
KDLH 220717Z 2207/2306 08014G23KT 1SM -SN BR OVC005
     FM220900 07015G23KT 1SM -SN BR OVC005
     FM221300 06015G25KT 5SM BR VCSH OVC003
     FM221700 06013G23KT P6SM VCSH OVC008
     FM222200 04011G20KT P6SM OVC010
     FM230000 03009KT P6SM BKN008
     FM230500 01009KT P6SM BKN030=

USA.gov is the U.S. government's official web portal to all federal, state and local government web resources and services.